Time,TemperatureF,DewpointF,PressureIn,WindDirection,WindDirectionDegrees,WindSpeedMPH,WindSpeedGustMPH,Humidity,HourlyPrecipIn,Conditions,Clouds,dailyrainin,SoftwareType,DateUTC
2013-07-22 00:01:00,72.6,71.0,30.01,NNW,343,0.0,0.0,93,0.01,,,0.00,weatherlink.com 1.10,2013-07-22 04:01:00,
2013-07-22 00:16:00,72.6,71.0,30.01,NNW,343,0.0,0.0,93,0.01,,,0.00,weatherlink.com 1.10,2013-07-22 04:16:00,
2013-07-22 00:31:00,72.6,71.0,30.00,NNW,343,0.0,0.0,93,0.00,,,0.00,weatherlink.com 1.10,2013-07-22 04:31:00,
2013-07-22 00:46:00,72.4,70.0,29.99,NNW,343,0.0,0.0,93,0.00,,,0.00,weatherlink.com 1.10,2013-07-22 04:46:00,
2013-07-22 01:01:00,72.3,70.0,29.98,NNW,343,0.0,0.0,93,0.00,,,0.00,weatherlink.com 1.10,2013-07-22 05:01:00,
2013-07-22 01:16:00,72.2,70.0,29.97,NNW,343,0.0,0.0,93,0.00,,,0.00,weatherlink.com 1.10,2013-07-22 05:16:00,
2013-07-22 01:31:00,72.1,70.0,29.96,NNW,343,0.0,0.0,93,0.00,,,0.00,weatherlink.com 1.10,2013-07-22 05:31:00,
2013-07-22 01:46:00,72.1,70.0,29.95,NNW,343,0.0,0.0,93,0.00,,,0.00,weatherlink.com 1.10,2013-07-22 05:46:00,
2013-07-22 02:01:00,72.0,70.0,29.95,NNW,343,0.0,0.0,93,0.00,,,0.00,weatherlink.com 1.10,2013-07-22 06:01:00,
2013-07-22 02:16:00,71.9,70.0,29.94,NNW,343,0.0,0.0,93,0.00,,,0.00,weatherlink.com 1.10,2013-07-22 06:16:00,
2013-07-22 02:31:00,71.8,70.0,29.93,NNW,343,0.0,0.0,93,0.00,,,0.00,weatherlink.com 1.10,2013-07-22 06:31:00,
2013-07-22 02:46:00,71.7,70.0,29.93,NNW,343,0.0,0.0,93,0.00,,,0.00,weatherlink.com 1.10,2013-07-22 06:46:00,
2013-07-22 03:01:00,71.5,69.0,29.92,NNW,343,0.0,0.0,93,0.00,,,0.00,weatherlink.com 1.10,2013-07-22 07:01:00,
2013-07-22 03:16:00,71.3,69.0,29.92,NNW,343,0.0,0.0,93,0.00,,,0.00,weatherlink.com 1.10,2013-07-22 07:16:00,
2013-07-22 03:31:00,71.2,69.0,29.91,NNW,343,0.0,0.0,93,0.00,,,0.00,weatherlink.com 1.10,2013-07-22 07:31:00,
2013-07-22 03:46:00,71.0,69.0,29.91,NNW,343,0.0,0.0,93,0.00,,,0.00,weatherlink.com 1.10,2013-07-22 07:46:00,
2013-07-22 04:01:00,70.8,69.0,29.91,NNW,343,0.0,0.0,93,0.00,,,0.00,weatherlink.com 1.10,2013-07-22 08:01:00,
2013-07-22 04:16:00,70.4,68.0,29.91,NNW,343,0.0,0.0,93,0.00,,,0.00,weatherlink.com 1.10,2013-07-22 08:16:00,
2013-07-22 04:31:00,70.4,68.0,29.91,NNW,343,0.0,0.0,93,0.00,,,0.00,weatherlink.com 1.10,2013-07-22 08:31:00,
2013-07-22 04:46:00,70.5,68.0,29.91,NNW,343,0.0,1.0,93,0.00,,,0.00,weatherlink.com 1.10,2013-07-22 08:46:00,
2013-07-22 05:01:00,71.0,69.0,29.92,NNW,343,0.0,0.0,93,0.00,,,0.00,weatherlink.com 1.10,2013-07-22 09:01:00,
2013-07-22 05:16:00,71.2,69.0,29.92,North,355,0.0,0.0,93,0.00,,,0.00,weatherlink.com 1.10,2013-07-22 09:16:00,
2013-07-22 05:31:00,71.1,69.0,29.92,North,355,0.0,0.0,93,0.00,,,0.00,weatherlink.com 1.10,2013-07-22 09:31:00,
2013-07-22 05:46:00,71.0,69.0,29.93,NNE,15,0.0,1.0,93,0.00,,,0.00,weatherlink.com 1.10,2013-07-22 09:46:00,
2013-07-22 06:01:00,70.9,69.0,29.93,West,275,0.0,3.0,93,0.00,,,0.00,weatherlink.com 1.10,2013-07-22 10:01:00,
2013-07-22 06:16:00,70.8,69.0,29.94,West,275,0.0,0.0,93,0.00,,,0.00,weatherlink.com 1.10,2013-07-22 10:16:00,
2013-07-22 06:31:00,70.8,69.0,29.94,West,275,0.0,0.0,93,0.00,,,0.00,weatherlink.com 1.10,2013-07-22 10:31:00,
2013-07-22 06:46:00,70.8,69.0,29.95,West,275,0.0,0.0,93,0.00,,,0.00,weatherlink.com 1.10,2013-07-22 10:46:00,
2013-07-22 07:01:00,71.0,69.0,29.95,West,275,0.0,0.0,93,0.00,,,0.00,weatherlink.com 1.10,2013-07-22 11:01:00,
2013-07-22 07:16:00,71.1,69.0,29.95,West,275,0.0,0.0,94,0.00,,,0.00,weatherlink.com 1.10,2013-07-22 11:16:00,
2013-07-22 07:31:00,71.2,69.0,29.95,West,275,0.0,0.0,94,0.00,,,0.00,weatherlink.com 1.10,2013-07-22 11:31:00,
2013-07-22 07:46:00,71.4,69.0,29.96,West,275,0.0,0.0,93,0.00,,,0.00,weatherlink.com 1.10,2013-07-22 11:46:00,
2013-07-22 08:01:00,71.7,70.0,29.96,West,275,0.0,0.0,94,0.00,,,0.00,weatherlink.com 1.10,2013-07-22 12:01:00,
2013-07-22 08:16:00,71.9,70.0,29.96,North,5,0.0,0.0,94,0.00,,,0.00,weatherlink.com 1.10,2013-07-22 12:16:00,
2013-07-22 08:31:00,72.2,70.0,29.97,North,5,0.0,1.0,94,0.00,,,0.00,weatherlink.com 1.10,2013-07-22 12:31:00,
2013-07-22 08:46:00,72.1,70.0,29.98,NW,311,0.0,1.0,93,0.00,,,0.00,weatherlink.com 1.10,2013-07-22 12:46:00,
2013-07-22 09:01:00,72.3,70.0,29.97,NW,311,0.0,0.0,93,0.00,,,0.00,weatherlink.com 1.10,2013-07-22 13:01:00,
2013-07-22 09:16:00,72.6,71.0,29.97,NW,311,0.0,1.0,93,0.00,,,0.00,weatherlink.com 1.10,2013-07-22 13:16:00,
2013-07-22 09:32:00,72.8,70.0,29.97,NNW,340,0.0,1.0,92,0.00,,,0.00,weatherlink.com 1.10,2013-07-22 13:32:00,
2013-07-22 09:47:00,73.2,71.0,29.97,ENE,74,1.0,2.0,92,0.00,,,0.00,weatherlink.com 1.10,2013-07-22 13:47:00,
2013-07-22 10:02:00,73.9,71.0,29.97,ENE,74,0.0,0.0,91,0.00,,,0.00,weatherlink.com 1.10,2013-07-22 14:02:00,
2013-07-22 10:17:00,74.4,71.0,29.97,ENE,74,0.0,0.0,90,0.00,,,0.00,weatherlink.com 1.10,2013-07-22 14:17:00,
2013-07-22 10:32:00,75.4,72.0,29.98,ENE,69,0.0,2.0,89,0.00,,,0.00,weatherlink.com 1.10,2013-07-22 14:32:00,
2013-07-22 10:47:00,76.0,72.0,29.98,NE,49,0.0,1.0,87,0.00,,,0.00,weatherlink.com 1.10,2013-07-22 14:47:00,
2013-07-22 11:02:00,76.9,72.0,29.98,SE,132,0.0,2.0,85,0.00,,,0.00,weatherlink.com 1.10,2013-07-22 15:02:00,
2013-07-22 11:17:00,78.8,73.0,29.98,WSW,245,0.0,2.0,83,0.00,,,0.00,weatherlink.com 1.10,2013-07-22 15:17:00,
2013-07-22 11:32:00,79.2,72.0,29.97,WSW,238,0.0,3.0,79,0.00,,,0.00,weatherlink.com 1.10,2013-07-22 15:32:00,
2013-07-22 11:47:00,80.3,72.0,29.97,ESE,116,0.0,3.0,76,0.00,,,0.00,weatherlink.com 1.10,2013-07-22 15:47:00,
2013-07-22 12:02:00,81.4,73.0,29.96,ENE,78,0.0,2.0,75,0.00,,,0.00,weatherlink.com 1.10,2013-07-22 16:02:00,
2013-07-22 12:17:00,82.2,74.0,29.96,ENE,66,0.0,2.0,77,0.00,,,0.00,weatherlink.com 1.10,2013-07-22 16:17:00,
2013-07-22 12:32:00,82.6,74.0,29.95,ESE,103,0.0,3.0,74,0.00,,,0.00,weatherlink.com 1.10,2013-07-22 16:32:00,
2013-07-22 12:47:00,83.0,74.0,29.95,SSE,165,0.0,4.0,74,0.00,,,0.00,weatherlink.com 1.10,2013-07-22 16:47:00,
2013-07-22 13:02:00,82.9,73.0,29.95,ENE,73,0.0,4.0,72,0.00,,,0.00,weatherlink.com 1.10,2013-07-22 17:02:00,
2013-07-22 13:17:00,83.0,75.0,29.95,NE,45,2.0,8.0,76,0.00,,,0.00,weatherlink.com 1.10,2013-07-22 17:17:00,
2013-07-22 13:32:00,83.4,74.0,29.94,WNW,289,0.0,3.0,74,0.00,,,0.00,weatherlink.com 1.10,2013-07-22 17:32:00,
2013-07-22 13:47:00,83.0,74.0,29.94,SW,236,0.0,4.0,74,0.00,,,0.00,weatherlink.com 1.10,2013-07-22 17:47:00,
2013-07-22 14:02:00,82.8,74.0,29.92,East,84,3.0,6.0,74,0.00,,,0.00,weatherlink.com 1.10,2013-07-22 18:02:00,
2013-07-22 14:17:00,83.6,75.0,29.91,SSW,200,1.0,3.0,75,0.00,,,0.00,weatherlink.com 1.10,2013-07-22 18:17:00,
2013-07-22 14:32:00,84.1,74.0,29.91,SW,223,0.0,4.0,72,0.00,,,0.00,weatherlink.com 1.10,2013-07-22 18:32:00,
2013-07-22 14:47:00,84.5,74.0,29.91,West,279,0.0,4.0,70,0.00,,,0.00,weatherlink.com 1.10,2013-07-22 18:47:00,
2013-07-22 15:02:00,84.6,75.0,29.91,ENE,58,0.0,4.0,72,0.00,,,0.00,weatherlink.com 1.10,2013-07-22 19:02:00,
2013-07-22 15:17:00,85.4,76.0,29.90,ENE,74,0.0,7.0,73,0.00,,,0.00,weatherlink.com 1.10,2013-07-22 19:17:00,
2013-07-22 15:32:00,85.4,74.0,29.90,North,360,0.0,4.0,68,0.00,,,0.00,weatherlink.com 1.10,2013-07-22 19:32:00,
2013-07-22 15:47:00,84.5,74.0,29.89,WNW,301,0.0,2.0,70,0.00,,,0.00,weatherlink.com 1.10,2013-07-22 19:47:00,
2013-07-22 16:17:00,81.2,73.0,29.89,West,270,0.0,2.0,77,0.00,,,0.00,weatherlink.com 1.10,2013-07-22 20:17:00,
2013-07-22 16:32:00,79.6,73.0,29.89,West,263,0.0,3.0,81,0.01,,,0.01,weatherlink.com 1.10,2013-07-22 20:32:00,
2013-07-22 16:47:00,78.0,73.0,29.89,NE,54,0.0,4.0,84,0.01,,,0.01,weatherlink.com 1.10,2013-07-22 20:47:00,
2013-07-22 17:02:00,78.2,72.0,29.88,WSW,247,1.0,3.0,81,0.01,,,0.01,weatherlink.com 1.10,2013-07-22 21:02:00,
2013-07-22 17:17:00,79.5,71.0,29.87,South,188,0.0,8.0,76,0.01,,,0.01,weatherlink.com 1.10,2013-07-22 21:17:00,
2013-07-22 17:33:00,80.7,72.0,29.86,ENE,78,0.0,3.0,74,0.00,,,0.01,weatherlink.com 1.10,2013-07-22 21:33:00,
2013-07-22 17:48:00,80.8,71.0,29.86,North,355,0.0,3.0,73,0.00,,,0.01,weatherlink.com 1.10,2013-07-22 21:48:00,
2013-07-22 18:03:00,80.5,72.0,29.85,ESE,114,2.0,3.0,75,0.00,,,0.01,weatherlink.com 1.10,2013-07-22 22:03:00,
2013-07-22 18:18:00,80.3,73.0,29.85,WNW,284,0.0,2.0,77,0.00,,,0.01,weatherlink.com 1.10,2013-07-22 22:18:00,
2013-07-22 18:33:00,80.2,72.0,29.85,NE,45,0.0,4.0,77,0.00,,,0.01,weatherlink.com 1.10,2013-07-22 22:33:00,
2013-07-22 18:48:00,80.3,74.0,29.85,NW,308,0.0,1.0,80,0.00,,,0.01,weatherlink.com 1.10,2013-07-22 22:48:00,
2013-07-22 19:03:00,80.4,74.0,29.84,NE,56,1.0,5.0,80,0.00,,,0.01,weatherlink.com 1.10,2013-07-22 23:03:00,
2013-07-22 19:18:00,80.5,73.0,29.84,East,84,0.0,3.0,79,0.00,,,0.01,weatherlink.com 1.10,2013-07-22 23:18:00,
2013-07-22 19:33:00,80.3,74.0,29.84,East,86,0.0,5.0,80,0.00,,,0.01,weatherlink.com 1.10,2013-07-22 23:33:00,
2013-07-22 19:48:00,80.1,74.0,29.85,ENE,74,0.0,2.0,81,0.00,,,0.01,weatherlink.com 1.10,2013-07-22 23:48:00,
2013-07-22 20:03:00,79.5,73.0,29.84,North,350,0.0,1.0,81,0.00,,,0.01,weatherlink.com 1.10,2013-07-23 00:03:00,
2013-07-22 20:18:00,79.0,73.0,29.84,SSE,150,0.0,6.0,82,0.00,,,0.01,weatherlink.com 1.10,2013-07-23 00:18:00,
2013-07-22 20:33:00,78.5,73.0,29.84,NNE,14,0.0,3.0,82,0.00,,,0.01,weatherlink.com 1.10,2013-07-23 00:33:00,
2013-07-22 20:48:00,78.1,73.0,29.85,ENE,72,0.0,4.0,83,0.00,,,0.01,weatherlink.com 1.10,2013-07-23 00:48:00,
2013-07-22 21:03:00,77.7,72.0,29.85,NNE,28,0.0,1.0,83,0.00,,,0.01,weatherlink.com 1.10,2013-07-23 01:03:00,
2013-07-22 21:18:00,77.2,72.0,29.85,ENE,61,0.0,2.0,84,0.00,,,0.01,weatherlink.com 1.10,2013-07-23 01:18:00,
2013-07-22 21:33:00,76.7,72.0,29.85,ENE,61,0.0,0.0,85,0.00,,,0.01,weatherlink.com 1.10,2013-07-23 01:33:00,
2013-07-22 21:48:00,76.4,72.0,29.85,NE,46,0.0,0.0,86,0.00,,,0.01,weatherlink.com 1.10,2013-07-23 01:48:00,
2013-07-22 22:03:00,76.0,72.0,29.87,SW,236,0.0,4.0,86,0.00,,,0.01,weatherlink.com 1.10,2013-07-23 02:03:00,
2013-07-22 22:18:00,76.0,72.0,29.86,NNE,20,0.0,4.0,87,0.00,,,0.01,weatherlink.com 1.10,2013-07-23 02:18:00,
2013-07-22 22:33:00,75.9,72.0,29.87,North,5,0.0,1.0,87,0.00,,,0.01,weatherlink.com 1.10,2013-07-23 02:33:00,
2013-07-22 22:48:00,75.7,72.0,29.87,North,360,0.0,0.0,87,0.00,,,0.01,weatherlink.com 1.10,2013-07-23 02:48:00,
2013-07-22 23:03:00,75.7,72.0,29.87,NW,315,0.0,2.0,87,0.00,,,0.01,weatherlink.com 1.10,2013-07-23 03:03:00,
2013-07-22 23:18:00,75.7,72.0,29.87,WNW,282,0.0,2.0,87,0.00,,,0.01,weatherlink.com 1.10,2013-07-23 03:18:00,
2013-07-22 23:33:00,75.8,71.0,29.87,West,275,0.0,1.0,86,0.00,,,0.01,weatherlink.com 1.10,2013-07-23 03:33:00,
2013-07-22 23:48:00,76.0,71.0,29.87,West,275,0.0,2.0,85,0.00,,,0.01,weatherlink.com 1.10,2013-07-23 03:48:00,